Time;durP1;ratioP1;P1;durP2;ratioP2;P2;SDS_P1;SDS_P2;PMS_P1;PMS_P2;Temp;Humidity;BMP_temperature;BMP_pressure;BME280_temperature;BME280_humidity;BME280_pressure;Samples;Min_cycle;Max_cycle;Signal;HPM_P1;HPM_P2
2022/12/25 00:01:10;;;;;;;28.95;6.53;;;;;;;5.67;100.00;101269.13;4951928;28;20051;-78
2022/12/25 00:03:36;;;;;;;21.80;6.53;;;;;;;5.65;100.00;101264.06;4946017;28;20039;-78
2022/12/25 00:06:02;;;;;;;27.70;6.60;;;;;;;5.70;100.00;101260.34;4970495;28;20537;-78
2022/12/25 00:08:27;;;;;;;17.65;5.90;;;;;;;5.65;100.00;101255.50;4955650;28;20071;-79
2022/12/25 00:11:02;;;;;;;24.05;6.25;;;;;;;5.64;100.00;101253.88;4950617;28;20051;-78
2022/12/25 00:13:27;;;;;;;25.15;6.22;;;;;;;5.62;100.00;101256.56;4973323;28;20050;-78
2022/12/25 00:15:53;;;;;;;20.40;5.82;;;;;;;5.61;100.00;101254.09;4939463;28;20043;-79
2022/12/25 00:18:19;;;;;;;19.90;5.57;;;;;;;5.60;100.00;101250.72;4968095;28;20077;-78
2022/12/25 00:20:44;;;;;;;22.55;6.53;;;;;;;5.59;100.00;101254.22;4936663;28;20054;-78
2022/12/25 00:23:10;;;;;;;26.15;5.93;;;;;;;5.63;100.00;101252.22;4933255;28;20552;-78
2022/12/25 00:25:39;;;;;;;30.52;8.13;;;;;;;5.75;100.00;101258.25;4931013;28;20464;-78
2022/12/25 00:28:04;;;;;;;25.58;6.85;;;;;;;5.73;100.00;101258.38;4954805;28;20036;-78
2022/12/25 00:30:30;;;;;;;30.50;8.25;;;;;;;5.69;100.00;101249.22;4944509;28;20801;-78
2022/12/25 00:32:55;;;;;;;24.52;7.43;;;;;;;5.64;100.00;101248.75;4929013;29;20044;-77
2022/12/25 00:35:21;;;;;;;22.30;7.85;;;;;;;5.62;100.00;101254.00;4915767;28;20088;-78
2022/12/25 00:37:46;;;;;;;24.60;7.30;;;;;;;5.73;100.00;101247.25;4905580;29;20656;-78
2022/12/25 00:40:12;;;;;;;28.95;7.43;;;;;;;5.82;100.00;101251.69;4943762;28;20111;-78
2022/12/25 00:42:37;;;;;;;17.85;6.93;;;;;;;5.73;100.00;101247.25;4954230;28;20040;-78
2022/12/25 00:45:04;;;;;;;29.00;7.05;;;;;;;5.67;100.00;101245.97;4927383;28;20082;-78
2022/12/25 00:47:30;;;;;;;17.33;7.07;;;;;;;5.65;100.00;101247.78;4930574;29;20047;-78
2022/12/25 00:49:55;;;;;;;23.25;6.55;;;;;;;5.64;100.00;101254.69;4945916;28;20047;-78
2022/12/25 00:52:21;;;;;;;25.15;6.43;;;;;;;5.65;100.00;101253.78;4943374;28;20043;-78
2022/12/25 00:54:46;;;;;;;22.10;7.13;;;;;;;5.66;100.00;101259.75;4920661;28;20043;-77
2022/12/25 00:57:11;;;;;;;23.70;7.05;;;;;;;5.67;100.00;101263.97;4929815;29;20051;-78
2022/12/25 00:59:37;;;;;;;26.15;7.00;;;;;;;5.66;100.00;101257.16;4926761;28;20067;-77
2022/12/25 01:04:47;;;;;;;23.73;7.55;;;;;;;5.69;100.00;101261.25;4926238;28;20047;-77
2022/12/25 01:07:13;;;;;;;27.38;6.50;;;;;;;5.76;100.00;101262.44;4930442;29;20393;-77
2022/12/25 01:12:22;;;;;;;18.75;6.85;;;;;;;5.85;100.00;101259.19;4927455;29;20039;-78
2022/12/25 01:14:48;;;;;;;28.90;6.93;;;;;;;5.88;100.00;101251.25;4944668;28;20428;-78
2022/12/25 01:17:13;;;;;;;32.60;7.72;;;;;;;5.90;100.00;101246.00;4931465;28;20034;-78
2022/12/25 01:19:39;;;;;;;25.13;7.90;;;;;;;5.90;100.00;101248.59;4926271;28;20040;-77
2022/12/25 01:22:04;;;;;;;34.78;9.75;;;;;;;5.81;100.00;101247.50;4925291;29;20049;-78
2022/12/25 01:24:30;;;;;;;32.35;8.43;;;;;;;5.83;100.00;101245.63;4938866;28;20036;-78
2022/12/25 01:26:55;;;;;;;26.48;8.23;;;;;;;6.04;100.00;101241.47;4957920;28;20039;-78
2022/12/25 01:29:20;;;;;;;25.80;7.75;;;;;;;5.94;100.00;101247.41;4955561;28;20043;-77
2022/12/25 01:31:47;;;;;;;32.08;8.88;;;;;;;6.03;100.00;101247.56;4949403;28;20147;-78
2022/12/25 01:34:13;;;;;;;28.60;8.90;;;;;;;6.09;100.00;101250.63;4966926;28;20118;-78
2022/12/25 01:36:38;;;;;;;24.65;8.15;;;;;;;6.06;100.00;101238.78;4947574;28;20312;-78
2022/12/25 01:39:04;;;;;;;26.23;8.38;;;;;;;6.10;100.00;101239.38;4926610;28;20087;-78
2022/12/25 01:41:29;;;;;;;32.85;8.20;;;;;;;6.22;100.00;101235.88;4956103;28;20035;-77
2022/12/25 01:44:07;;;;;;;25.73;7.63;;;;;;;6.19;100.00;101236.91;4935652;28;20046;-78
2022/12/25 01:46:34;;;;;;;33.28;7.80;;;;;;;6.11;100.00;101238.44;4956638;28;20024;-78
2022/12/25 01:49:08;;;;;;;24.42;9.15;;;;;;;6.14;100.00;101243.34;4921261;28;20107;-78
2022/12/25 01:51:46;;;;;;;25.38;7.72;;;;;;;6.13;100.00;101247.69;4940784;28;20566;-77
2022/12/25 01:54:22;;;;;;;19.33;7.32;;;;;;;6.03;100.00;101255.28;4928169;28;20131;-79
2022/12/25 01:56:50;;;;;;;18.50;7.88;;;;;;;6.02;100.00;101247.69;4929307;29;20134;-78
2022/12/25 01:59:20;;;;;;;18.60;7.00;;;;;;;5.96;100.00;101259.25;4955876;28;20050;-78
2022/12/25 02:01:46;;;;;;;21.25;7.57;;;;;;;5.96;100.00;101266.97;4923099;29;20036;-78
2022/12/25 02:04:21;;;;;;;25.55;7.85;;;;;;;6.20;100.00;101276.38;4959033;28;20040;-77
2022/12/25 02:06:48;;;;;;;25.83;7.57;;;;;;;6.11;100.00;101274.50;4955328;28;20048;-77
2022/12/25 02:09:14;;;;;;;20.88;7.55;;;;;;;6.27;100.00;101269.00;4921861;28;20047;-78
2022/12/25 02:11:58;;;;;;;25.33;8.48;;;;;;;6.28;100.00;101268.88;4939501;28;20035;-78
2022/12/25 02:14:26;;;;;;;28.10;8.30;;;;;;;6.28;100.00;101265.50;4942409;28;20055;-77
2022/12/25 02:17:22;;;;;;;17.15;6.97;;;;;;;6.21;100.00;101260.78;4957268;28;20043;-78
2022/12/25 02:20:07;;;;;;;21.70;7.55;;;;;;;6.32;100.00;101256.59;4960137;28;20059;-78
2022/12/25 02:22:51;;;;;;;21.05;6.80;;;;;;;6.23;100.00;101274.41;4925294;29;20490;-78
2022/12/25 02:25:51;;;;;;;24.10;7.47;;;;;;;6.28;100.00;101266.31;4958732;28;20048;-78
2022/12/25 02:28:41;;;;;;;24.52;8.02;;;;;;;6.23;100.00;101270.97;4946011;28;20031;-78
2022/12/25 02:31:13;;;;;;;17.52;6.68;;;;;;;6.26;100.00;101280.25;4925272;29;20130;-78
2022/12/25 02:34:03;;;;;;;36.53;8.13;;;;;;;6.37;100.00;101275.09;4943963;28;20078;-78
2022/12/25 02:36:50;;;;;;;20.85;7.63;;;;;;;6.40;100.00;101261.97;4909611;29;20127;-78
2022/12/25 02:42:13;;;;;;;26.73;8.30;;;;;;;6.50;100.00;101270.66;4934240;28;20024;-78
2022/12/25 03:07:07;;;;;;;22.08;7.95;;;;;;;6.12;100.00;101260.66;4934839;29;20036;-78
2022/12/25 03:12:54;;;;;;;21.63;7.15;;;;;;;6.20;100.00;101254.03;4957444;28;20035;-79
2022/12/25 03:18:13;;;;;;;24.05;6.68;;;;;;;6.23;100.00;101258.09;4933260;29;20036;-78
2022/12/25 03:28:55;;;;;;;23.95;7.50;;;;;;;6.51;100.00;101237.97;4948383;28;20489;-78
2022/12/25 03:31:33;;;;;;;16.52;5.97;;;;;;;6.41;100.00;101233.53;4947323;28;20042;-78
2022/12/25 04:36:29;;;;;;;22.85;5.55;;;;;;;6.60;100.00;101172.84;4928394;29;20138;-77
2022/12/25 04:38:54;;;;;;;23.92;6.13;;;;;;;6.56;100.00;101181.75;4928074;28;20513;-78
2022/12/25 04:41:20;;;;;;;25.80;6.53;;;;;;;6.48;100.00;101181.50;4934102;29;20835;-78
2022/12/25 04:43:45;;;;;;;15.65;5.68;;;;;;;6.50;100.00;101174.47;4929560;28;20040;-78
2022/12/25 04:46:11;;;;;;;22.80;6.00;;;;;;;6.47;100.00;101182.47;4931375;29;20042;-78
2022/12/25 04:48:36;;;;;;;21.08;6.65;;;;;;;6.49;100.00;101175.44;4949649;28;20083;-78
2022/12/25 04:51:17;;;;;;;14.50;5.55;;;;;;;6.46;100.00;101180.81;4929054;29;20844;-78
2022/12/25 04:53:43;;;;;;;20.42;5.90;;;;;;;6.40;100.00;101182.13;4928220;28;20039;-78
2022/12/25 04:56:09;;;;;;;12.18;4.95;;;;;;;6.38;100.00;101182.22;4933246;29;20031;-78
2022/12/25 04:58:35;;;;;;;16.40;5.80;;;;;;;6.41;100.00;101186.34;4947695;28;20035;-78
2022/12/25 05:01:02;;;;;;;15.98;5.55;;;;;;;6.35;100.00;101179.09;4950599;28;20023;-78
2022/12/25 05:03:28;;;;;;;13.40;5.05;;;;;;;6.36;100.00;101185.88;4933001;29;20949;-78
2022/12/25 05:05:54;;;;;;;10.68;4.72;;;;;;;6.33;100.00;101186.94;4945287;28;20648;-78
2022/12/25 05:08:19;;;;;;;15.13;5.15;;;;;;;6.26;100.00;101184.97;4940080;28;20032;-78
2022/12/25 05:10:46;;;;;;;16.67;5.47;;;;;;;6.30;100.00;101183.78;4960962;28;20495;-78
2022/12/25 05:13:11;;;;;;;17.23;6.20;;;;;;;6.24;100.00;101175.59;4947887;28;20557;-78
2022/12/25 05:15:41;;;;;;;12.52;5.50;;;;;;;6.23;100.00;101178.28;4946659;28;20040;-78
2022/12/25 05:18:06;;;;;;;13.60;5.57;;;;;;;6.13;100.00;101178.16;4936242;29;20066;-78
2022/12/25 05:20:32;;;;;;;15.18;5.63;;;;;;;6.12;100.00;101179.13;4956313;28;20043;-78
2022/12/25 05:22:57;;;;;;;13.82;4.80;;;;;;;6.09;100.00;101173.38;4930995;28;20042;-77
2022/12/25 05:25:22;;;;;;;16.80;6.35;;;;;;;6.06;100.00;101169.25;4918444;28;20103;-78
2022/12/25 05:27:48;;;;;;;16.27;6.47;;;;;;;6.04;100.00;101166.00;4930874;29;20036;-77
2022/12/25 05:30:13;;;;;;;16.50;5.82;;;;;;;6.01;100.00;101153.38;4933795;28;20039;-78
2022/12/25 05:32:39;;;;;;;14.30;6.22;;;;;;;5.99;100.00;101147.50;4959163;28;20028;-78
2022/12/25 05:35:07;;;;;;;13.77;5.75;;;;;;;5.88;100.00;101150.88;4929640;28;20465;-78
2022/12/25 05:37:34;;;;;;;18.98;6.32;;;;;;;5.86;100.00;101150.19;4923809;29;20032;-78
2022/12/25 05:39:59;;;;;;;16.92;6.10;;;;;;;5.85;100.00;101144.19;4956757;28;20709;-78
2022/12/25 05:42:25;;;;;;;18.92;6.10;;;;;;;5.80;100.00;101148.03;4932099;29;20039;-78
2022/12/25 05:44:50;;;;;;;14.00;5.70;;;;;;;5.81;100.00;101154.84;4923358;28;20066;-77
2022/12/25 05:47:16;;;;;;;17.05;6.20;;;;;;;5.78;100.00;101158.47;4956762;28;20034;-78
2022/12/25 05:49:41;;;;;;;20.75;6.65;;;;;;;5.77;100.00;101156.84;4944279;28;20047;-78
2022/12/25 05:52:06;;;;;;;17.65;7.13;;;;;;;5.80;100.00;101164.34;4932518;28;20032;-77
2022/12/25 05:54:33;;;;;;;12.45;5.20;;;;;;;5.79;100.00;101154.97;4918972;28;20035;-78
2022/12/25 05:56:58;;;;;;;17.13;6.88;;;;;;;5.83;100.00;101158.13;4929536;29;20035;-77
2022/12/25 05:59:24;;;;;;;15.90;5.55;;;;;;;5.92;100.00;101148.91;4930374;28;20596;-78
2022/12/25 06:01:49;;;;;;;13.80;5.47;;;;;;;5.88;100.00;101138.00;4955762;28;20490;-79
2022/12/25 06:04:15;;;;;;;14.27;7.00;;;;;;;5.87;100.00;101126.06;4930971;28;20036;-78
2022/12/25 06:06:40;;;;;;;11.70;5.47;;;;;;;5.88;100.00;101139.75;4955854;28;20036;-78
2022/12/25 06:09:06;;;;;;;18.30;6.07;;;;;;;5.89;100.00;101141.41;4930955;28;20210;-78
2022/12/25 06:11:31;;;;;;;13.02;5.90;;;;;;;5.92;100.00;101141.16;4960187;28;20039;-78
2022/12/25 06:13:57;;;;;;;19.17;6.00;;;;;;;5.93;100.00;101141.03;4944234;28;20635;-78
2022/12/25 06:16:22;;;;;;;19.10;6.13;;;;;;;5.96;100.00;101137.44;4953949;28;20580;-78
2022/12/25 06:18:50;;;;;;;21.50;6.22;;;;;;;6.01;100.00;101131.00;4942250;28;20039;-78
2022/12/25 06:21:16;;;;;;;13.13;6.47;;;;;;;6.07;100.00;101127.16;4944110;28;20039;-77
2022/12/25 06:23:42;;;;;;;18.13;6.78;;;;;;;6.20;100.00;101125.25;4961125;28;20397;-77
2022/12/25 06:26:10;;;;;;;17.45;6.15;;;;;;;6.23;100.00;101107.00;4921563;29;20042;-78
2022/12/25 06:28:36;;;;;;;17.50;5.50;;;;;;;6.46;100.00;101106.09;4934270;28;20093;-78
2022/12/25 06:31:10;;;;;;;14.90;5.65;;;;;;;6.59;100.00;101089.56;4965199;28;20035;-78
2022/12/25 06:33:36;;;;;;;16.33;6.57;;;;;;;6.56;100.00;101094.16;4958824;28;20126;-78
2022/12/25 06:36:07;;;;;;;17.58;5.05;;;;;;;6.56;100.00;101086.41;4964379;28;20114;-78
2022/12/25 06:38:32;;;;;;;21.98;5.22;;;;;;;6.61;100.00;101087.69;4933471;28;20555;-78
2022/12/25 06:41:03;;;;;;;19.92;5.43;;;;;;;6.70;100.00;101096.41;4946455;28;20032;-78
2022/12/25 06:43:29;;;;;;;14.35;4.50;;;;;;;6.90;100.00;101086.28;4934569;29;20036;-79
2022/12/25 06:45:54;;;;;;;19.23;4.93;;;;;;;6.69;100.00;101075.94;4941284;28;20051;-78
2022/12/25 06:48:19;;;;;;;13.30;4.85;;;;;;;6.75;100.00;101088.34;4944897;28;20039;-78
2022/12/25 06:50:45;;;;;;;16.90;4.70;;;;;;;6.68;100.00;101092.34;4939313;28;20046;-78
2022/12/25 06:53:10;;;;;;;14.57;4.72;;;;;;;6.76;100.00;101089.94;4934146;29;20072;-79
2022/12/25 06:55:36;;;;;;;15.52;4.97;;;;;;;6.78;100.00;101077.75;4964374;28;20047;-77
2022/12/25 06:58:01;;;;;;;9.38;3.90;;;;;;;6.79;100.00;101059.59;4941296;29;20035;-78
2022/12/25 07:00:27;;;;;;;10.50;4.22;;;;;;;6.89;100.00;101057.06;4938170;28;20394;-78
2022/12/25 07:02:52;;;;;;;14.00;3.70;;;;;;;6.98;100.00;101061.47;4933044;29;20035;-78
2022/12/25 07:05:18;;;;;;;11.23;3.85;;;;;;;7.02;100.00;101051.72;4930124;28;20523;-78
2022/12/25 07:07:43;;;;;;;14.75;4.57;;;;;;;7.02;100.00;101036.25;4932389;29;20036;-78
2022/12/25 07:10:09;;;;;;;14.35;4.40;;;;;;;7.13;100.00;101030.22;4933400;28;20039;-78
2022/12/25 07:12:34;;;;;;;12.27;3.72;;;;;;;7.14;100.00;101009.47;4959432;28;20124;-78
2022/12/25 07:15:00;;;;;;;10.98;3.70;;;;;;;7.15;100.00;101005.94;4932312;28;20051;-78
2022/12/25 07:17:26;;;;;;;11.88;3.55;;;;;;;7.13;100.00;101004.44;4962534;28;20047;-78
2022/12/25 07:19:51;;;;;;;11.85;4.00;;;;;;;7.13;100.00;101009.59;4933971;28;20059;-78
2022/12/25 07:22:17;;;;;;;17.75;4.07;;;;;;;7.17;100.00;101008.38;4936907;28;20424;-78
2022/12/25 07:24:42;;;;;;;14.93;4.63;;;;;;;7.31;100.00;101009.78;4930285;28;20036;-77
2022/12/25 07:27:07;;;;;;;16.85;3.78;;;;;;;7.38;100.00;100998.84;4914898;29;20602;-78
2022/12/25 07:29:33;;;;;;;19.77;5.75;;;;;;;7.33;100.00;101001.00;4961731;28;20126;-78
2022/12/25 07:31:59;;;;;;;12.82;4.28;;;;;;;7.33;100.00;101001.00;4933921;29;20031;-78
2022/12/25 07:34:25;;;;;;;15.68;4.57;;;;;;;7.33;100.00;100997.63;4953255;28;20039;-78
2022/12/25 07:36:50;;;;;;;15.15;4.65;;;;;;;7.43;100.00;100993.28;4932597;29;20036;-78
2022/12/25 07:39:16;;;;;;;13.13;4.22;;;;;;;7.36;100.00;100987.81;4959157;28;20040;-78
2022/12/25 07:41:42;;;;;;;15.13;4.63;;;;;;;7.36;100.00;100985.25;4926682;29;20482;-78
2022/12/25 07:44:14;;;;;;;13.32;4.80;;;;;;;7.41;100.00;100988.25;4935188;28;20485;-79
2022/12/25 07:46:40;;;;;;;12.15;3.42;;;;;;;7.45;100.00;100996.56;4931319;29;20121;-78
2022/12/25 07:49:05;;;;;;;12.63;4.05;;;;;;;7.52;100.00;100992.50;4935123;28;20036;-79
2022/12/25 07:51:31;;;;;;;17.90;5.78;;;;;;;7.46;100.00;100990.47;4960358;28;21122;-78
2022/12/25 07:53:56;;;;;;;13.45;3.97;;;;;;;7.55;100.00;100988.84;4930536;28;20099;-78
2022/12/25 07:56:22;;;;;;;23.98;4.15;;;;;;;7.58;100.00;100993.75;4927248;29;20043;-78
2022/12/25 07:58:47;;;;;;;14.20;4.30;;;;;;;7.57;100.00;100992.09;4951937;28;20050;-78
2022/12/25 08:01:20;;;;;;;19.65;5.10;;;;;;;7.59;100.00;100980.72;4948441;28;20140;-78
2022/12/25 08:03:54;;;;;;;16.38;4.30;;;;;;;7.54;100.00;100987.22;4926975;28;20131;-78
2022/12/25 08:06:20;;;;;;;15.80;3.85;;;;;;;7.53;100.00;100986.38;4959099;28;20044;-78
2022/12/25 08:08:46;;;;;;;13.18;4.18;;;;;;;7.60;100.00;100981.53;4958774;28;20040;-77
2022/12/25 08:11:12;;;;;;;22.88;3.70;;;;;;;7.56;100.00;100980.97;4937085;29;20043;-78
2022/12/25 08:13:38;;;;;;;12.10;3.60;;;;;;;7.59;100.00;100995.38;4958011;28;20269;-78
2022/12/25 08:16:07;;;;;;;12.25;3.35;;;;;;;7.70;100.00;100989.28;4927936;29;20942;-78
2022/12/25 08:18:34;;;;;;;10.73;3.50;;;;;;;7.71;100.00;100998.69;4931621;28;20032;-78
2022/12/25 08:21:05;;;;;;;10.82;3.70;;;;;;;7.71;100.00;100998.69;4947937;28;20027;-78
2022/12/25 08:23:37;;;;;;;12.63;3.15;;;;;;;7.77;100.00;100972.31;4928902;28;20040;-78
2022/12/25 08:26:04;;;;;;;13.43;3.72;;;;;;;7.73;100.00;100927.09;4961680;28;20126;-78
2022/12/25 08:28:30;;;;;;;9.27;3.20;;;;;;;7.78;100.00;100930.09;4930284;29;20036;-78
2022/12/25 08:30:56;;;;;;;11.65;3.22;;;;;;;7.72;100.00;100954.66;4921612;29;20076;-78
2022/12/25 08:33:21;;;;;;;11.13;4.18;;;;;;;7.81;100.00;100996.91;4928149;29;20036;-77
2022/12/25 08:35:47;;;;;;;15.98;6.50;;;;;;;7.79;100.00;101035.78;4928857;28;20071;-78
2022/12/25 08:38:12;;;;;;;18.67;4.97;;;;;;;7.80;100.00;101052.91;4929060;29;20036;-78
2022/12/25 08:40:38;;;;;;;16.98;7.95;;;;;;;7.80;100.00;101055.50;4930204;28;20095;-78
2022/12/25 08:43:03;;;;;;;20.60;7.38;;;;;;;7.74;100.00;101058.59;4934856;29;20028;-78
2022/12/25 08:45:29;;;;;;;18.27;6.70;;;;;;;7.81;100.00;101045.97;4946972;28;20040;-77
2022/12/25 08:47:56;;;;;;;21.02;6.90;;;;;;;7.83;100.00;101028.59;4933959;29;20122;-78
2022/12/25 08:50:23;;;;;;;15.77;5.00;;;;;;;7.78;100.00;101023.81;4927626;28;20043;-78
2022/12/25 08:52:48;;;;;;;17.02;4.60;;;;;;;7.85;100.00;101016.34;4949828;28;20067;-78
2022/12/25 08:55:14;;;;;;;19.05;5.43;;;;;;;7.80;100.00;101011.59;4929487;28;20956;-78
2022/12/25 08:57:40;;;;;;;17.00;5.50;;;;;;;7.88;100.00;101010.94;4959244;28;20028;-78
2022/12/25 09:00:07;;;;;;;21.42;6.55;;;;;;;7.94;100.00;101005.22;4928571;28;20037;-78
2022/12/25 09:02:32;;;;;;;19.17;6.32;;;;;;;7.94;100.00;100997.47;4949298;28;20057;-78
2022/12/25 09:04:58;;;;;;;20.38;5.32;;;;;;;8.07;100.00;100997.22;4945582;28;20044;-77
2022/12/25 09:07:23;;;;;;;23.67;6.20;;;;;;;8.02;100.00;101006.34;4931148;29;20032;-78
2022/12/25 09:09:49;;;;;;;19.08;6.13;;;;;;;7.98;100.00;101005.78;4949428;28;20044;-78
2022/12/25 09:12:15;;;;;;;13.73;5.78;;;;;;;8.13;100.00;101035.44;4948397;28;20035;-78
2022/12/25 09:14:41;;;;;;;13.90;6.68;;;;;;;8.08;100.00;101029.03;4933131;28;20036;-77
2022/12/25 09:17:06;;;;;;;18.40;7.20;;;;;;;8.16;100.00;101042.13;4930302;29;20086;-79
2022/12/25 09:19:32;;;;;;;17.33;7.55;;;;;;;8.12;100.00;101045.91;4932019;28;20115;-79
2022/12/25 09:21:57;;;;;;;16.77;7.25;;;;;;;8.18;100.00;101053.94;4942289;28;20032;-78
2022/12/25 09:24:23;;;;;;;21.17;8.48;;;;;;;8.13;100.00;101063.03;4931175;28;20047;-78
2022/12/25 09:26:48;;;;;;;17.17;7.78;;;;;;;8.14;100.00;101060.31;4929148;29;20044;-78
2022/12/25 09:29:15;;;;;;;14.80;6.72;;;;;;;8.10;100.00;101052.97;4929896;28;20036;-79
2022/12/25 09:31:41;;;;;;;21.55;7.03;;;;;;;8.18;100.00;101051.34;4917329;28;20180;-79
2022/12/25 09:34:08;;;;;;;19.30;7.00;;;;;;;8.08;100.00;101047.13;4959323;28;20747;-80
2022/12/25 09:36:33;;;;;;;20.35;7.15;;;;;;;8.10;100.00;101047.78;4932319;29;20046;-80
2022/12/25 09:38:59;;;;;;;23.17;8.18;;;;;;;8.15;100.00;101048.22;4933663;28;20039;-80
2022/12/25 09:41:33;;;;;;;20.67;6.65;;;;;;;8.10;100.00;101066.72;4953283;28;20032;-80
2022/12/25 09:44:05;;;;;;;22.27;8.52;;;;;;;7.96;100.00;101067.88;4962520;28;20039;-81
2022/12/25 09:46:39;;;;;;;24.10;8.25;;;;;;;8.11;100.00;101064.94;4927466;28;20043;-80
2022/12/25 09:49:29;;;;;;;22.77;7.18;;;;;;;8.02;100.00;101057.97;4945570;28;20032;-81
2022/12/25 09:52:03;;;;;;;15.48;8.07;;;;;;;7.95;100.00;101042.22;4946172;28;20675;-80
2022/12/25 09:54:43;;;;;;;27.08;9.73;;;;;;;7.96;100.00;101031.72;4941167;28;20035;-81
2022/12/25 09:57:13;;;;;;;28.77;9.20;;;;;;;7.96;100.00;101028.34;4961410;28;20085;-80
2022/12/25 09:59:42;;;;;;;19.08;8.50;;;;;;;7.93;100.00;101020.84;4942897;28;20045;-83
2022/12/25 10:02:49;;;;;;;22.10;7.57;;;;;;;7.95;100.00;101017.22;4951227;28;20046;-80
2022/12/25 10:05:33;;;;;;;21.77;8.50;;;;;;;7.95;100.00;101034.47;4944319;28;20156;-80
2022/12/25 10:08:28;;;;;;;20.10;8.90;;;;;;;7.99;100.00;101034.06;4929688;29;20040;-79
2022/12/25 10:11:16;;;;;;;22.65;10.10;;;;;;;8.12;100.00;101027.84;4961649;28;20202;-79
2022/12/25 10:13:59;;;;;;;19.55;7.70;;;;;;;8.07;100.00;101022.25;4958099;28;20722;-80
2022/12/25 10:16:48;;;;;;;18.13;8.15;;;;;;;8.05;100.00;101000.91;4934809;28;20111;-80
2022/12/25 10:19:33;;;;;;;18.73;8.75;;;;;;;8.19;100.00;101000.50;4937725;28;20134;-80
2022/12/25 10:22:09;;;;;;;15.23;7.35;;;;;;;8.09;100.00;100997.91;4930429;29;20064;-80
2022/12/25 10:24:50;;;;;;;20.20;7.30;;;;;;;8.15;100.00;100997.38;4959429;28;20044;-80
2022/12/25 10:27:31;;;;;;;17.55;7.10;;;;;;;8.14;100.00;100995.75;4937930;28;20027;-80
2022/12/25 10:29:57;;;;;;;19.08;7.60;;;;;;;8.14;100.00;100987.19;4939933;28;20050;-79
2022/12/25 10:32:23;;;;;;;16.15;7.30;;;;;;;8.08;100.00;100998.03;4925321;28;20036;-80
2022/12/25 10:34:49;;;;;;;20.45;7.75;;;;;;;8.12;100.00;100983.94;4926711;28;20095;-80
2022/12/25 10:37:15;;;;;;;16.90;7.15;;;;;;;8.15;100.00;100983.63;4954809;28;20106;-80
2022/12/25 10:39:42;;;;;;;17.60;8.05;;;;;;;8.10;100.00;100983.22;4925099;28;20094;-79
2022/12/25 10:42:29;;;;;;;19.13;8.55;;;;;;;8.10;100.00;100996.13;4943664;28;20062;-79
2022/12/25 10:45:01;;;;;;;20.48;7.93;;;;;;;8.14;100.00;101005.28;4958114;28;20436;-80
2022/12/25 10:47:33;;;;;;;15.77;7.55;;;;;;;8.15;100.00;101002.53;4933669;29;20032;-80
2022/12/25 10:50:00;;;;;;;20.57;7.87;;;;;;;8.03;100.00;100997.66;4943200;28;20425;-80
2022/12/25 10:52:27;;;;;;;17.38;7.43;;;;;;;8.12;100.00;100994.25;4928155;29;20480;-80
2022/12/25 10:54:53;;;;;;;22.85;9.32;;;;;;;8.13;100.00;100988.13;4957330;28;20036;-81
2022/12/25 10:57:23;;;;;;;21.65;8.02;;;;;;;8.08;100.00;100988.53;4929827;28;20028;-80
2022/12/25 10:59:54;;;;;;;18.23;7.30;;;;;;;8.31;100.00;100980.53;4927294;28;20039;-80
2022/12/25 11:02:29;;;;;;;17.92;8.10;;;;;;;8.26;100.00;100962.84;4911101;29;20236;-79
2022/12/25 11:05:13;;;;;;;17.50;7.75;;;;;;;8.28;100.00;100957.53;4936491;28;20610;-80
2022/12/25 11:07:53;;;;;;;16.42;7.50;;;;;;;8.30;100.00;100953.84;4959899;28;20036;-80
2022/12/25 11:10:30;;;;;;;15.82;7.68;;;;;;;8.33;100.00;100943.25;4929759;28;20050;-78
2022/12/25 11:12:56;;;;;;;19.75;7.07;;;;;;;8.37;100.00;100931.69;4949273;28;20051;-80
2022/12/25 11:15:41;;;;;;;21.23;8.68;;;;;;;8.44;100.00;100910.47;4956608;28;20044;-79
2022/12/25 11:18:24;;;;;;;15.80;7.45;;;;;;;8.38;100.00;100886.81;4951921;28;20043;-79
2022/12/25 11:20:52;;;;;;;20.27;7.45;;;;;;;8.41;100.00;100870.22;4936693;28;20056;-80
2022/12/25 11:23:19;;;;;;;17.42;7.68;;;;;;;8.29;100.00;100869.56;4950164;28;20498;-78
2022/12/25 11:25:55;;;;;;;15.40;7.82;;;;;;;8.38;100.00;100862.72;4962062;28;20042;-79
2022/12/25 11:28:20;;;;;;;22.33;8.52;;;;;;;8.46;100.00;100851.75;4936221;29;20505;-79
2022/12/25 11:30:49;;;;;;;17.92;7.50;;;;;;;8.38;100.00;100842.06;4928625;28;20104;-79
2022/12/25 11:33:16;;;;;;;16.25;7.78;;;;;;;8.38;100.00;100848.06;4941601;28;20131;-79
2022/12/25 11:35:48;;;;;;;18.48;8.23;;;;;;;8.43;100.00;100858.00;4966596;28;20043;-79
2022/12/25 11:38:14;;;;;;;23.33;11.87;;;;;;;8.42;100.00;100863.28;4936974;29;20035;-78
2022/12/25 11:40:50;;;;;;;20.88;9.43;;;;;;;8.42;100.00;100865.88;4961367;28;21013;-78
2022/12/25 11:43:28;;;;;;;20.15;9.13;;;;;;;8.40;100.00;100858.25;4948122;28;20059;-78
2022/12/25 11:46:24;;;;;;;19.92;11.25;;;;;;;8.48;100.00;100852.41;4962146;28;20454;-78
2022/12/25 11:48:59;;;;;;;21.33;9.95;;;;;;;8.52;100.00;100853.75;4950839;28;20054;-78
2022/12/25 11:51:32;;;;;;;18.75;8.82;;;;;;;8.38;100.00;100848.06;4932665;29;20059;-78
2022/12/25 11:53:59;;;;;;;;;;;;;;;8.49;100.00;100857.41;4935464;28;20047;-79
2022/12/25 11:56:27;;;;;;;16.58;8.68;;;;;;;8.46;100.00;100862.09;4947185;28;19915;-80
2022/12/25 11:58:59;;;;;;;20.33;11.85;;;;;;;8.44;100.00;100851.03;4965145;28;20039;-81
2022/12/25 12:01:34;;;;;;;18.83;10.33;;;;;;;8.37;100.00;100838.66;4938405;29;20039;-81
2022/12/25 12:04:01;;;;;;;18.02;10.15;;;;;;;8.52;100.00;100839.06;4955508;28;20107;-81
2022/12/25 12:07:07;;;;;;;19.38;9.07;;;;;;;8.51;100.00;100834.88;4937307;28;20107;-81
2022/12/25 12:09:59;;;;;;;24.77;13.70;;;;;;;8.49;100.00;100839.34;4935514;28;20043;-81
2022/12/25 12:12:42;;;;;;;21.67;10.45;;;;;;;8.45;100.00;100840.56;4934165;29;20043;-80
2022/12/25 12:15:21;;;;;;;18.70;10.00;;;;;;;8.60;100.00;100824.63;4953350;28;20039;-80
2022/12/25 12:17:46;;;;;;;14.32;9.25;;;;;;;8.38;100.00;100816.22;4947107;28;20035;-81
2022/12/25 12:20:22;;;;;;;13.95;8.27;;;;;;;8.49;100.00;100815.28;4937413;28;20090;-79
2022/12/25 12:22:50;;;;;;;16.88;8.05;;;;;;;8.42;100.00;100803.88;4935288;29;20460;-81
2022/12/25 12:25:17;;;;;;;17.52;7.90;;;;;;;8.46;100.00;100808.63;4935889;28;20039;-80
2022/12/25 12:27:43;;;;;;;15.23;8.80;;;;;;;8.41;100.00;100821.13;4921712;29;20044;-80
2022/12/25 12:30:28;;;;;;;16.38;8.40;;;;;;;8.35;100.00;100821.69;4930028;28;20043;-80
2022/12/25 12:32:58;;;;;;;17.42;8.32;;;;;;;8.38;100.00;100827.38;4964586;28;20046;-79
2022/12/25 12:35:33;;;;;;;15.63;9.00;;;;;;;8.29;100.00;100817.09;4964061;28;20050;-80
2022/12/25 12:38:05;;;;;;;17.05;9.35;;;;;;;8.38;100.00;100817.06;4937916;29;20040;-79
2022/12/25 12:40:38;;;;;;;16.30;9.43;;;;;;;8.35;100.00;100817.31;4959690;28;20052;-79
2022/12/25 12:43:05;;;;;;;18.15;9.60;;;;;;;8.33;100.00;100818.44;4965211;28;20128;-79
2022/12/25 12:45:35;;;;;;;18.73;9.55;;;;;;;8.39;100.00;100815.28;4958875;28;20056;-79
2022/12/25 12:48:13;;;;;;;20.70;10.20;;;;;;;8.37;100.00;100797.31;4942614;28;20035;-80
2022/12/25 12:50:40;;;;;;;19.35;9.63;;;;;;;8.39;100.00;100803.16;4929674;28;20048;-79
2022/12/25 12:53:21;;;;;;;16.33;9.30;;;;;;;8.37;100.00;100799.09;4922660;29;20180;-79
2022/12/25 12:55:46;;;;;;;18.00;8.93;;;;;;;8.33;100.00;100798.56;4947450;28;20059;-79
2022/12/25 12:58:33;;;;;;;20.98;8.55;;;;;;;8.39;100.00;100799.78;4963805;28;20075;-79
2022/12/25 13:01:26;;;;;;;18.50;8.98;;;;;;;8.36;100.00;100806.06;4916362;29;20046;-79
2022/12/25 13:04:33;;;;;;;18.15;9.35;;;;;;;8.41;100.00;100809.97;4929535;28;20048;-79
2022/12/25 13:07:34;;;;;;;18.67;10.40;;;;;;;8.39;100.00;100787.66;4947029;28;20109;-78
2022/12/25 13:10:42;;;;;;;18.08;10.68;;;;;;;8.36;100.00;100803.47;4952691;28;20086;-79
2022/12/25 13:13:24;;;;;;;19.83;11.45;;;;;;;8.38;100.00;100803.28;4953153;28;20127;-79
2022/12/25 13:15:51;;;;;;;27.67;11.52;;;;;;;8.51;100.00;100790.94;4972603;28;20050;-79
2022/12/25 13:18:17;;;;;;;22.00;11.02;;;;;;;8.43;100.00;100782.25;4944690;28;20387;-79